Time;durP1;ratioP1;P1;durP2;ratioP2;P2;SDS_P1;SDS_P2;PMS_P1;PMS_P2;Temp;Humidity;BMP_temperature;BMP_pressure;BME280_temperature;BME280_humidity;BME280_pressure;Samples;Min_cycle;Max_cycle;Signal;HPM_P1;HPM_P2
2022/06/09 00:00:13;;;;;;;;;;;;;;;20.33;67.90;100001.47;2030208;29;19914;-49
2022/06/09 00:01:20;;;;;;;;;;;;;;;20.34;67.76;100010.50;2024369;29;19982;-45
2022/06/09 00:02:20;;;;;;;;;;;;;;;20.34;68.37;100010.50;2029980;29;19914;-46
2022/06/09 00:03:31;;;;;;;;;;;;;;;20.33;68.06;100017.97;2028479;29;19907;-47
2022/06/09 00:04:34;;;;;;;;;;;;;;;20.33;68.08;100014.44;2029759;29;19961;-46
2022/06/09 00:05:36;;;;;;;;;;;;;;;20.32;68.22;100002.66;2029862;29;20020;-46
2022/06/09 00:06:38;;;;;;;;;;;;;;;20.34;68.07;100018.75;2030372;29;19907;-47
2022/06/09 00:07:39;;;;;;;;;;;;;;;20.33;67.90;100008.94;2028859;29;19951;-49
2022/06/09 00:08:42;;;;;;;;;;;;;;;20.33;68.30;100008.94;2030252;29;19957;-47
2022/06/09 00:09:45;;;;;;;;;;;;;;;20.32;68.07;100010.91;2029486;29;20306;-46
2022/06/09 00:10:50;;;;;;;;;;;;;;;20.34;68.15;100010.50;2032156;29;19919;-49
2022/06/09 00:11:51;;;;;;;;;;;;;;;20.33;68.39;100015.22;2029512;29;20131;-49
2022/06/09 00:12:51;;;;;;;;;;;;;;;20.33;68.28;100025.44;2035062;28;20011;-47
2022/06/09 00:13:52;;;;;;;;;;;;;;;20.32;68.41;100024.66;2028763;29;19919;-47
2022/06/09 00:14:53;;;;;;;;;;;;;;;20.33;68.55;100011.69;2025280;29;20300;-47
2022/06/09 00:15:54;;;;;;;;;;;;;;;20.31;68.61;100012.09;2037970;28;19914;-45
2022/06/09 00:16:54;;;;;;;;;;;;;;;20.33;68.35;100017.19;2038066;28;20339;-50
2022/06/09 00:17:54;;;;;;;;;;;;;;;20.33;68.46;100019.94;2035302;28;19954;-46
2022/06/09 00:18:55;;;;;;;;;;;;;;;20.33;68.42;100017.19;2037329;28;19914;-46
2022/06/09 00:19:56;;;;;;;;;;;;;;;20.34;68.11;100021.50;2038263;28;19973;-47
2022/06/09 00:20:56;;;;;;;;;;;;;;;20.34;68.06;100014.00;2034536;29;19917;-49
2022/06/09 00:21:56;;;;;;;;;;;;;;;20.32;68.58;100018.38;2035902;29;19909;-46
2022/06/09 00:22:57;;;;;;;;;;;;;;;20.33;68.36;100020.72;2035923;28;19906;-48
2022/06/09 00:23:57;;;;;;;;;;;;;;;20.34;68.34;100018.75;2030051;29;21134;-48
2022/06/09 00:24:58;;;;;;;;;;;;;;;20.34;68.56;100018.75;2028938;29;19966;-46
2022/06/09 00:25:58;;;;;;;;;;;;;;;20.34;68.07;100021.50;2033410;28;19949;-47
2022/06/09 00:26:58;;;;;;;;;;;;;;;20.34;68.07;100027.00;2037411;28;20117;-48
2022/06/09 00:27:58;;;;;;;;;;;;;;;20.32;68.08;100018.38;2030663;29;19915;-46
2022/06/09 00:28:59;;;;;;;;;;;;;;;20.32;68.26;100021.13;2030167;29;20000;-48
2022/06/09 00:29:59;;;;;;;;;;;;;;;20.33;68.12;100019.94;2028378;29;19938;-47
2022/06/09 00:31:00;;;;;;;;;;;;;;;20.32;67.72;100027.41;2023072;29;20157;-48
2022/06/09 00:32:01;;;;;;;;;;;;;;;20.33;68.08;100022.69;2017713;29;19938;-46
2022/06/09 00:33:01;;;;;;;;;;;;;;;20.31;68.08;100025.03;2026999;29;19985;-46
2022/06/09 00:34:01;;;;;;;;;;;;;;;20.31;68.19;100025.84;2032372;28;19999;-47
2022/06/09 00:35:02;;;;;;;;;;;;;;;20.32;67.97;100024.66;2034731;28;20851;-46
2022/06/09 00:36:02;;;;;;;;;;;;;;;20.30;68.12;100018.78;2038123;29;19964;-47
2022/06/09 00:37:03;;;;;;;;;;;;;;;20.31;68.33;100023.09;2030658;28;19943;-50
2022/06/09 00:38:03;;;;;;;;;;;;;;;20.32;68.08;100029.38;2026519;29;20308;-49
2022/06/09 00:39:03;;;;;;;;;;;;;;;20.32;67.51;100023.88;2026737;29;19921;-48
2022/06/09 00:40:05;;;;;;;;;;;;;;;20.34;67.88;100027.00;2027511;29;20766;-46
2022/06/09 00:41:06;;;;;;;;;;;;;;;20.32;67.81;100018.38;2027379;28;19918;-46
2022/06/09 00:42:08;;;;;;;;;;;;;;;20.34;67.85;100027.00;2034206;28;19917;-46
2022/06/09 00:43:08;;;;;;;;;;;;;;;20.31;68.22;100020.34;2035377;28;19921;-46
2022/06/09 00:44:14;;;;;;;;;;;;;;;20.31;68.10;100016.78;2037210;28;19981;-46
2022/06/09 00:45:27;;;;;;;;;;;;;;;20.30;68.10;100016.03;2030593;28;19906;-46
2022/06/09 00:46:30;;;;;;;;;;;;;;;20.32;68.13;100026.63;2032719;28;19965;-48
2022/06/09 00:47:32;;;;;;;;;;;;;;;20.31;68.12;100022.28;2031862;29;19915;-47
2022/06/09 00:48:32;;;;;;;;;;;;;;;20.31;68.08;100020.34;2031892;28;20314;-49
2022/06/09 00:49:39;;;;;;;;;;;;;;;20.32;68.26;100023.88;2036937;28;19942;-48
2022/06/09 00:50:40;;;;;;;;;;;;;;;20.31;68.24;100023.09;2034967;28;20907;-47
2022/06/09 00:51:43;;;;;;;;;;;;;;;20.30;68.33;100026.25;2039335;28;19914;-47
2022/06/09 00:52:47;;;;;;;;;;;;;;;20.30;68.43;100018.00;2035305;28;20368;-47
2022/06/09 00:53:49;;;;;;;;;;;;;;;20.32;68.06;100023.88;2036280;28;20029;-48
2022/06/09 00:54:52;;;;;;;;;;;;;;;20.31;68.21;100025.03;2037700;28;19914;-47
2022/06/09 00:55:53;;;;;;;;;;;;;;;20.30;68.50;100027.03;2037301;28;19971;-46
2022/06/09 00:57:00;;;;;;;;;;;;;;;20.28;68.61;100023.16;2028046;29;19915;-46
2022/06/09 00:58:06;;;;;;;;;;;;;;;20.28;68.21;100023.16;2030733;28;20339;-47
2022/06/09 00:59:09;;;;;;;;;;;;;;;20.28;68.29;100018.41;2039449;28;21208;-47
2022/06/09 01:00:12;;;;;;;;;;;;;;;20.28;68.23;100020.41;2032189;29;19918;-49
2022/06/09 01:01:15;;;;;;;;;;;;;;;20.27;68.30;100018.84;2033019;28;20241;-46
2022/06/09 01:02:17;;;;;;;;;;;;;;;20.28;68.57;100023.16;2037389;28;20714;-47
2022/06/09 01:03:19;;;;;;;;;;;;;;;20.29;68.44;100028.22;2037097;28;20349;-48
2022/06/09 01:04:22;;;;;;;;;;;;;;;20.29;68.36;100028.22;2038251;28;19919;-49
2022/06/09 01:05:23;;;;;;;;;;;;;;;20.29;68.25;100024.69;2035495;28;20359;-47
2022/06/09 01:06:26;;;;;;;;;;;;;;;20.28;68.08;100023.91;2035967;28;19921;-49
2022/06/09 01:07:31;;;;;;;;;;;;;;;20.29;68.63;100025.47;2036324;28;19991;-48
2022/06/09 01:08:35;;;;;;;;;;;;;;;20.28;68.45;100023.16;2036519;28;19914;-48
2022/06/09 01:09:35;;;;;;;;;;;;;;;20.29;68.41;100024.69;2036821;28;20454;-46
2022/06/09 01:10:36;;;;;;;;;;;;;;;20.27;67.95;100030.63;2028987;29;19918;-46
2022/06/09 01:11:37;;;;;;;;;;;;;;;20.29;68.09;100024.69;2028931;29;20371;-48
2022/06/09 01:12:41;;;;;;;;;;;;;;;20.29;68.41;100032.94;2035779;28;20177;-46
2022/06/09 01:13:42;;;;;;;;;;;;;;;20.28;68.45;100028.66;2037625;28;19910;-48
2022/06/09 01:14:42;;;;;;;;;;;;;;;20.27;68.24;100032.59;2031970;28;19914;-46
2022/06/09 01:16:00;;;;;;;;;;;;;;;20.27;68.24;100038.09;2033082;28;19914;-46
2022/06/09 01:17:10;;;;;;;;;;;;;;;20.27;68.25;100032.59;2035665;28;19937;-46
2022/06/09 01:18:29;;;;;;;;;;;;;;;20.24;68.51;100040.50;2037669;28;20156;-48
2022/06/09 01:19:48;;;;;;;;;;;;;;;20.25;68.17;100036.53;2035690;28;19915;-47
2022/06/09 01:20:48;;;;;;;;;;;;;;;20.24;68.27;100040.50;2024301;29;19915;-47
2022/06/09 01:22:07;;;;;;;;;;;;;;;20.23;68.45;100044.44;2032823;28;20021;-46
2022/06/09 01:23:31;;;;;;;;;;;;;;;20.23;68.63;100043.66;2033685;28;20024;-47
2022/06/09 01:24:40;;;;;;;;;;;;;;;20.23;68.56;100038.94;2035870;28;19914;-45
2022/06/09 01:25:41;;;;;;;;;;;;;;;20.23;68.09;100038.94;2037154;28;20427;-46
2022/06/09 01:26:44;;;;;;;;;;;;;;;20.24;68.32;100034.22;2035904;28;19910;-47
2022/06/09 01:27:59;;;;;;;;;;;;;;;20.22;68.49;100050.34;2034510;28;19914;-47
2022/06/09 01:29:05;;;;;;;;;;;;;;;20.22;68.65;100040.13;2033579;28;19961;-47
2022/06/09 01:30:14;;;;;;;;;;;;;;;20.22;68.34;100040.13;2032525;28;19914;-47
2022/06/09 01:31:26;;;;;;;;;;;;;;;20.23;68.18;100047.19;2025017;29;19922;-48
2022/06/09 01:32:30;;;;;;;;;;;;;;;20.23;68.19;100047.19;2029562;29;19921;-48
2022/06/09 01:33:30;;;;;;;;;;;;;;;20.22;68.28;100044.84;2031494;28;19922;-47
2022/06/09 01:34:37;;;;;;;;;;;;;;;20.22;68.25;100048.38;2033130;28;20102;-46
2022/06/09 01:35:43;;;;;;;;;;;;;;;20.25;68.05;100053.03;2033337;28;19910;-46
2022/06/09 01:37:09;;;;;;;;;;;;;;;20.22;68.38;100053.09;2038501;28;19914;-50
2022/06/09 01:38:09;;;;;;;;;;;;;;;20.20;68.49;100050.00;2034400;29;20321;-47
2022/06/09 01:39:09;;;;;;;;;;;;;;;20.21;68.61;100055.06;2035485;28;19914;-49
2022/06/09 01:40:12;;;;;;;;;;;;;;;20.22;68.39;100053.88;2033007;28;20188;-46
2022/06/09 01:41:13;;;;;;;;;;;;;;;20.22;68.50;100048.38;2032892;29;20229;-48
2022/06/09 01:42:21;;;;;;;;;;;;;;;20.22;68.56;100053.09;2036788;28;20438;-46
2022/06/09 01:43:21;;;;;;;;;;;;;;;20.21;68.33;100060.56;2034381;29;19914;-47
2022/06/09 01:44:22;;;;;;;;;;;;;;;20.22;68.77;100061.34;2036036;28;19938;-47
2022/06/09 01:45:28;;;;;;;;;;;;;;;20.22;68.65;100050.34;2037556;28;20305;-48
2022/06/09 01:46:33;;;;;;;;;;;;;;;20.21;68.35;100051.56;2032228;28;20296;-47
2022/06/09 01:47:59;;;;;;;;;;;;;;;20.20;68.43;100053.53;2037758;28;19910;-48
2022/06/09 01:49:03;;;;;;;;;;;;;;;20.18;68.46;100052.41;2029538;28;19929;-48
2022/06/09 01:50:06;;;;;;;;;;;;;;;20.17;68.48;100057.13;2036565;28;19917;-45
2022/06/09 01:51:09;;;;;;;;;;;;;;;20.18;68.70;100058.69;2035269;28;20321;-47
2022/06/09 01:52:09;;;;;;;;;;;;;;;20.19;68.24;100052.00;2028274;28;19940;-47
2022/06/09 01:53:13;;;;;;;;;;;;;;;20.17;68.30;100048.88;2037301;28;19921;-47
2022/06/09 01:54:34;;;;;;;;;;;;;;;20.17;68.41;100056.34;2034976;28;19914;-47
2022/06/09 01:55:37;;;;;;;;;;;;;;;20.19;68.32;100053.97;2038630;28;19929;-47
2022/06/09 01:56:41;;;;;;;;;;;;;;;20.19;68.16;100060.25;2032149;28;19955;-49
2022/06/09 01:57:42;;;;;;;;;;;;;;;20.20;68.20;100056.28;2034348;28;19918;-47
2022/06/09 01:58:51;;;;;;;;;;;;;;;20.18;68.31;100055.16;2035397;28;20386;-49
2022/06/09 01:59:54;;;;;;;;;;;;;;;20.18;68.42;100052.41;2036406;28;19917;-49
2022/06/09 02:00:57;;;;;;;;;;;;;;;20.19;68.15;100062.22;2032483;28;19918;-48
2022/06/09 02:01:59;;;;;;;;;;;;;;;20.19;68.00;100054.75;2035267;28;19916;-47
2022/06/09 02:03:02;;;;;;;;;;;;;;;20.18;68.09;100052.41;2034871;28;19914;-48
2022/06/09 02:04:05;;;;;;;;;;;;;;;20.17;68.27;100051.63;2031710;28;19930;-46
2022/06/09 02:05:18;;;;;;;;;;;;;;;20.19;68.16;100059.47;2037127;28;19914;-47
2022/06/09 02:06:20;;;;;;;;;;;;;;;20.17;68.41;100062.63;2026366;29;19990;-48
2022/06/09 02:07:21;;;;;;;;;;;;;;;20.18;68.58;100057.91;2028438;29;19914;-47
2022/06/09 02:08:23;;;;;;;;;;;;;;;20.18;68.26;100064.19;2037048;28;19921;-46
2022/06/09 02:09:25;;;;;;;;;;;;;;;20.18;68.44;100057.91;2036584;28;20188;-47
2022/06/09 02:10:38;;;;;;;;;;;;;;;20.18;68.44;100058.69;2031683;28;19934;-47
2022/06/09 02:12:04;;;;;;;;;;;;;;;20.15;68.45;100058.72;2032859;28;19954;-49
2022/06/09 02:13:12;;;;;;;;;;;;;;;20.16;68.26;100057.53;2030700;28;20358;-46
2022/06/09 02:14:12;;;;;;;;;;;;;;;20.16;68.33;100052.81;2031449;28;20302;-45
2022/06/09 02:15:16;;;;;;;;;;;;;;;20.16;68.43;100049.28;2037284;28;20012;-48
2022/06/09 02:16:18;;;;;;;;;;;;;;;20.17;68.28;100059.09;2031344;28;19922;-47
2022/06/09 02:17:20;;;;;;;;;;;;;;;20.15;68.19;100054.00;2038357;29;19921;-49
2022/06/09 02:18:21;;;;;;;;;;;;;;;20.15;68.25;100054.00;2037235;28;19914;-47
2022/06/09 02:19:23;;;;;;;;;;;;;;;20.14;68.21;100052.47;2030912;28;20389;-48
2022/06/09 02:20:24;;;;;;;;;;;;;;;20.11;68.21;100058.81;2034776;28;20048;-46
2022/06/09 02:21:31;;;;;;;;;;;;;;;20.12;68.34;100052.13;2031822;28;19906;-48
2022/06/09 02:22:32;;;;;;;;;;;;;;;20.12;68.42;100065.84;2035446;28;20061;-46
2022/06/09 02:23:32;;;;;;;;;;;;;;;20.13;68.23;100056.41;2027516;29;20389;-46
2022/06/09 02:24:32;;;;;;;;;;;;;;;20.13;68.37;100056.41;2036783;28;19914;-48
2022/06/09 02:25:32;;;;;;;;;;;;;;;20.14;68.39;100062.69;2035450;28;20626;-47
2022/06/09 02:26:33;;;;;;;;;;;;;;;20.15;68.48;100065.00;2036974;28;19914;-49
2022/06/09 02:27:33;;;;;;;;;;;;;;;20.15;68.42;100070.50;2035716;28;19906;-45
2022/06/09 02:28:34;;;;;;;;;;;;;;;20.15;68.43;100070.50;2036284;28;19919;-50
2022/06/09 02:29:34;;;;;;;;;;;;;;;20.14;68.46;100077.22;2037263;28;19906;-48
2022/06/09 02:30:35;;;;;;;;;;;;;;;20.13;68.53;100070.16;2038483;28;19981;-45
2022/06/09 02:31:35;;;;;;;;;;;;;;;20.15;68.70;100069.72;2036216;28;19910;-47
2022/06/09 02:32:36;;;;;;;;;;;;;;;20.13;68.63;100072.13;2031179;28;20240;-48
2022/06/09 02:33:36;;;;;;;;;;;;;;;20.12;68.66;100074.09;2034507;28;20512;-47
2022/06/09 02:34:37;;;;;;;;;;;;;;;20.13;68.39;100078.41;2029814;28;19918;-49
2022/06/09 02:35:37;;;;;;;;;;;;;;;20.12;68.48;100073.31;2027720;29;20365;-47
2022/06/09 02:36:37;;;;;;;;;;;;;;;20.09;68.80;100065.94;2034172;28;19914;-48
2022/06/09 02:37:38;;;;;;;;;;;;;;;20.11;68.45;100069.03;2037235;28;19957;-46
2022/06/09 02:38:38;;;;;;;;;;;;;;;20.12;68.67;100070.56;2030339;28;20362;-49
2022/06/09 02:39:38;;;;;;;;;;;;;;;20.12;68.70;100071.34;2028634;29;19910;-47
2022/06/09 02:40:39;;;;;;;;;;;;;;;20.13;68.66;100069.38;2036055;28;20183;-47
2022/06/09 02:41:39;;;;;;;;;;;;;;;20.12;68.57;100071.34;2032577;28;19929;-46
2022/06/09 02:42:39;;;;;;;;;;;;;;;20.12;68.61;100071.34;2032697;28;19960;-50
2022/06/09 02:43:40;;;;;;;;;;;;;;;20.12;68.31;100070.56;2031973;28;19915;-48
2022/06/09 02:44:41;;;;;;;;;;;;;;;20.12;68.19;100074.09;2035625;28;19914;-46
2022/06/09 02:45:41;;;;;;;;;;;;;;;20.11;68.39;100069.81;2035984;28;19950;-47
2022/06/09 02:46:43;;;;;;;;;;;;;;;20.11;68.54;100075.31;2031932;28;19911;-46
2022/06/09 02:47:44;;;;;;;;;;;;;;;20.10;68.27;100072.97;2035216;28;19984;-47
2022/06/09 02:48:45;;;;;;;;;;;;;;;20.11;68.45;100074.53;2034232;28;20002;-49
2022/06/09 02:49:45;;;;;;;;;;;;;;;20.11;68.21;100071.78;2036631;28;20720;-47
2022/06/09 02:50:46;;;;;;;;;;;;;;;20.12;68.32;100070.56;2035941;28;19914;-47
2022/06/09 02:51:46;;;;;;;;;;;;;;;20.10;68.35;100065.50;2037644;28;19914;-49
2022/06/09 02:52:47;;;;;;;;;;;;;;;20.09;68.33;100071.44;2025574;29;19910;-49
2022/06/09 02:53:47;;;;;;;;;;;;;;;20.09;68.26;100072.19;2027729;29;20629;-47
2022/06/09 02:54:48;;;;;;;;;;;;;;;20.11;68.70;100067.06;2039843;29;19911;-46
2022/06/09 02:55:48;;;;;;;;;;;;;;;20.10;68.69;100072.97;2035388;28;20380;-47
2022/06/09 02:56:48;;;;;;;;;;;;;;;20.11;68.20;100069.03;2032057;28;19965;-50
2022/06/09 02:57:49;;;;;;;;;;;;;;;20.08;68.15;100076.16;2033891;28;20447;-45
2022/06/09 02:58:49;;;;;;;;;;;;;;;20.08;68.38;100070.66;2031373;28;20009;-47
2022/06/09 02:59:51;;;;;;;;;;;;;;;20.08;68.46;100067.91;2028614;28;20337;-45
2022/06/09 03:00:51;;;;;;;;;;;;;;;20.08;68.28;100070.66;2028558;28;19997;-45
2022/06/09 03:01:52;;;;;;;;;;;;;;;20.06;68.22;100075.78;2036751;28;19919;-46
2022/06/09 03:02:53;;;;;;;;;;;;;;;20.08;68.17;100070.66;2029447;28;20959;-46
2022/06/09 03:03:54;;;;;;;;;;;;;;;20.08;68.27;100070.66;2029111;29;20009;-50
2022/06/09 03:04:54;;;;;;;;;;;;;;;20.09;67.99;100069.44;2027678;28;19921;-46
2022/06/09 03:05:54;;;;;;;;;;;;;;;20.07;68.17;100074.59;2034849;28;19918;-47
2022/06/09 03:06:55;;;;;;;;;;;;;;;20.06;68.19;100078.53;2035744;28;19907;-47
2022/06/09 03:07:55;;;;;;;;;;;;;;;20.06;67.92;100075.78;2036133;29;19920;-47
2022/06/09 03:08:55;;;;;;;;;;;;;;;20.04;68.02;100075.41;2029077;28;20266;-49
2022/06/09 03:09:56;;;;;;;;;;;;;;;20.06;68.00;100073.03;2030641;29;19930;-46
2022/06/09 03:10:56;;;;;;;;;;;;;;;20.06;68.33;100070.28;2028155;28;20284;-50
2022/06/09 03:11:56;;;;;;;;;;;;;;;20.04;68.02;100074.66;2031279;28;20603;-50
2022/06/09 03:12:56;;;;;;;;;;;;;;;20.03;68.27;100071.13;2028929;29;19910;-47
2022/06/09 03:13:57;;;;;;;;;;;;;;;20.00;68.59;100074.72;2034497;28;19952;-48
2022/06/09 03:14:57;;;;;;;;;;;;;;;20.00;68.40;100069.22;2035795;28;19918;-46
2022/06/09 03:15:58;;;;;;;;;;;;;;;20.01;68.63;100065.28;2029373;28;19938;-48
2022/06/09 03:16:59;;;;;;;;;;;;;;;20.00;68.67;100080.19;2030384;28;19953;-47
2022/06/09 03:17:59;;;;;;;;;;;;;;;20.00;68.42;100073.94;2029488;29;19914;-48
2022/06/09 03:18:59;;;;;;;;;;;;;;;20.02;68.08;100079.78;2029448;28;19922;-48
2022/06/09 03:19:59;;;;;;;;;;;;;;;20.00;68.30;100079.44;2027087;29;19926;-48
2022/06/09 03:21:00;;;;;;;;;;;;;;;20.01;68.32;100087.25;2037216;28;20295;-49
2022/06/09 03:22:00;;;;;;;;;;;;;;;20.01;68.08;100081.75;2026019;29;19918;-50
2022/06/09 03:23:01;;;;;;;;;;;;;;;20.02;68.14;100082.53;2027255;29;20459;-48
2022/06/09 03:24:01;;;;;;;;;;;;;;;20.01;67.85;100076.25;2030337;28;19970;-47
2022/06/09 03:25:02;;;;;;;;;;;;;;;19.98;68.02;100082.63;2032336;29;19915;-50
2022/06/09 03:26:02;;;;;;;;;;;;;;;19.99;67.99;100086.88;2038726;28;19918;-47
2022/06/09 03:27:02;;;;;;;;;;;;;;;20.00;67.31;100085.69;2032634;28;20009;-48
2022/06/09 03:28:04;;;;;;;;;;;;;;;19.99;67.18;100086.88;2030781;29;19911;-47
2022/06/09 03:29:04;;;;;;;;;;;;;;;20.00;67.04;100088.44;2036273;28;20400;-46
2022/06/09 03:30:05;;;;;;;;;;;;;;;19.98;67.49;100093.59;2040795;28;19915;-48
2022/06/09 03:31:05;;;;;;;;;;;;;;;19.98;67.64;100088.13;2038797;28;19953;-50
2022/06/09 03:32:05;;;;;;;;;;;;;;;19.99;67.43;100089.63;2034657;28;20611;-48
2022/06/09 03:33:06;;;;;;;;;;;;;;;19.98;67.59;100088.13;2030642;28;19969;-48
2022/06/09 03:34:06;;;;;;;;;;;;;;;19.98;67.72;100088.13;2036213;28;20297;-46
2022/06/09 03:35:07;;;;;;;;;;;;;;;19.99;67.50;100094.34;2040201;28;20001;-48
2022/06/09 03:36:08;;;;;;;;;;;;;;;19.97;67.87;100091.28;2031784;28;19997;-46
2022/06/09 03:37:08;;;;;;;;;;;;;;;19.99;67.30;100089.63;2029495;29;19922;-47
2022/06/09 03:38:09;;;;;;;;;;;;;;;19.98;67.42;100093.59;2031642;28;20029;-47
2022/06/09 03:39:10;;;;;;;;;;;;;;;19.96;67.57;100086.97;2030072;29;19920;-46
2022/06/09 03:40:13;;;;;;;;;;;;;;;19.96;67.43;100090.50;2031136;29;19938;-46
2022/06/09 03:41:13;;;;;;;;;;;;;;;19.98;67.28;100093.59;2029338;28;20210;-49
2022/06/09 03:42:13;;;;;;;;;;;;;;;19.98;67.50;100099.09;2033994;29;19970;-47
2022/06/09 03:43:13;;;;;;;;;;;;;;;19.98;67.54;100082.63;2037836;28;20028;-47
2022/06/09 03:44:14;;;;;;;;;;;;;;;19.99;67.82;100095.13;2033624;28;19913;-49
2022/06/09 03:45:14;;;;;;;;;;;;;;;19.96;68.38;100093.25;2029354;29;19914;-46
2022/06/09 03:46:14;;;;;;;;;;;;;;;19.97;67.97;100091.28;2037953;28;19945;-49
2022/06/09 03:47:15;;;;;;;;;;;;;;;19.94;68.27;100092.88;2033104;28;20649;-48
2022/06/09 03:48:15;;;;;;;;;;;;;;;19.95;67.64;100097.19;2022243;29;20525;-47
2022/06/09 03:49:15;;;;;;;;;;;;;;;19.92;67.78;100092.53;2027048;29;19913;-46
2022/06/09 03:50:18;;;;;;;;;;;;;;;19.93;67.93;100094.09;2035484;28;19913;-50
2022/06/09 03:51:18;;;;;;;;;;;;;;;19.96;67.87;100095.22;2036542;28;20016;-49
2022/06/09 03:52:19;;;;;;;;;;;;;;;19.95;68.10;100099.94;2035662;28;19915;-49
2022/06/09 03:53:19;;;;;;;;;;;;;;;19.95;68.28;100099.16;2029245;29;19915;-46
2022/06/09 03:54:19;;;;;;;;;;;;;;;19.95;68.13;100099.94;2034494;28;19914;-47
2022/06/09 03:55:20;;;;;;;;;;;;;;;19.94;68.04;100098.38;2038004;28;20197;-47
2022/06/09 03:56:21;;;;;;;;;;;;;;;19.93;68.17;100102.34;2033234;28;19917;-46
2022/06/09 03:57:21;;;;;;;;;;;;;;;19.94;67.97;100105.84;2029748;29;19911;-46
2022/06/09 03:58:22;;;;;;;;;;;;;;;19.92;68.28;100100.00;2030134;28;20380;-48
2022/06/09 03:59:22;;;;;;;;;;;;;;;19.94;67.90;100103.88;2027778;28;20406;-46
2022/06/09 04:00:24;;;;;;;;;;;;;;;19.95;67.87;100099.94;2030229;29;19999;-46
2022/06/09 04:01:25;;;;;;;;;;;;;;;19.96;67.75;100104.22;2029006;28;19915;-46
2022/06/09 04:02:25;;;;;;;;;;;;;;;19.96;67.73;100103.47;2029906;29;20001;-48
2022/06/09 04:03:25;;;;;;;;;;;;;;;19.97;67.58;100113.25;2035154;28;19914;-45
2022/06/09 04:04:26;;;;;;;;;;;;;;;19.97;67.32;100108.53;2030464;28;20146;-47
2022/06/09 04:05:27;;;;;;;;;;;;;;;19.96;67.83;100109.72;2034476;28;19911;-46
2022/06/09 04:06:27;;;;;;;;;;;;;;;19.93;68.27;100107.06;2038909;28;19950;-47
2022/06/09 04:07:28;;;;;;;;;;;;;;;19.92;68.29;100109.03;2030316;28;20356;-48
2022/06/09 04:08:28;;;;;;;;;;;;;;;19.94;68.24;100114.88;2029215;28;19914;-50
2022/06/09 04:09:28;;;;;;;;;;;;;;;19.94;68.41;100112.13;2030364;29;19915;-50
2022/06/09 04:10:30;;;;;;;;;;;;;;;19.92;68.34;100117.28;2028620;28;19942;-47
2022/06/09 04:11:32;;;;;;;;;;;;;;;19.93;68.48;100115.31;2028897;29;19934;-46
2022/06/09 04:12:32;;;;;;;;;;;;;;;19.93;67.93;100112.56;2030148;29;19915;-48
2022/06/09 04:13:32;;;;;;;;;;;;;;;19.94;68.06;100114.88;2029398;29;19915;-46
2022/06/09 04:14:33;;;;;;;;;;;;;;;19.95;68.16;100118.38;2029739;29;19982;-46
2022/06/09 04:15:34;;;;;;;;;;;;;;;19.96;67.92;100122.69;2028819;28;19914;-48
2022/06/09 04:16:40;;;;;;;;;;;;;;;19.94;67.83;100119.56;2030226;28;19915;-46
2022/06/09 04:17:41;;;;;;;;;;;;;;;19.93;67.76;100118.03;2030165;29;19914;-48
2022/06/09 04:18:41;;;;;;;;;;;;;;;19.92;67.71;100120.03;2031835;28;20349;-49
2022/06/09 04:19:41;;;;;;;;;;;;;;;19.92;67.70;100120.03;2032815;28;19946;-47
2022/06/09 04:20:41;;;;;;;;;;;;;;;19.91;67.92;100115.72;2036959;28;19934;-46
2022/06/09 04:21:42;;;;;;;;;;;;;;;19.91;68.04;100117.69;2024159;29;19919;-47
2022/06/09 04:22:43;;;;;;;;;;;;;;;19.92;67.97;100117.28;2028538;29;20509;-46
2022/06/09 04:23:43;;;;;;;;;;;;;;;19.90;67.91;100118.88;2029551;29;20834;-46
2022/06/09 04:24:43;;;;;;;;;;;;;;;19.87;67.03;100123.25;2028668;29;19915;-46
2022/06/09 04:25:44;;;;;;;;;;;;;;;19.87;67.14;100116.97;2023045;29;19919;-47
2022/06/09 04:26:45;;;;;;;;;;;;;;;19.88;67.41;100124.78;2028536;29;20356;-46
2022/06/09 04:27:45;;;;;;;;;;;;;;;19.89;67.30;100131.84;2021314;29;19954;-47
2022/06/09 04:28:46;;;;;;;;;;;;;;;19.87;67.53;100131.50;2020928;29;20005;-48
2022/06/09 04:29:46;;;;;;;;;;;;;;;19.87;67.44;100126.00;2031497;28;19949;-46
2022/06/09 04:30:46;;;;;;;;;;;;;;;19.88;67.68;100138.50;2035284;28;19914;-51
2022/06/09 04:31:46;;;;;;;;;;;;;;;19.88;67.87;100140.50;2032834;28;20032;-47
2022/06/09 04:32:47;;;;;;;;;;;;;;;19.88;67.38;100135.75;2032003;28;19910;-47
2022/06/09 04:33:48;;;;;;;;;;;;;;;19.86;67.02;100129.94;2037049;28;19961;-48
2022/06/09 04:34:49;;;;;;;;;;;;;;;19.85;66.71;100136.63;2031861;28;20413;-50
2022/06/09 04:35:49;;;;;;;;;;;;;;;19.83;66.91;100141.75;2034699;28;19922;-49
2022/06/09 04:36:49;;;;;;;;;;;;;;;19.83;66.75;100143.75;2028866;28;20222;-48
2022/06/09 04:38:03;;;;;;;;;;;;;;;19.82;67.44;100140.22;2028724;29;19922;-50
2022/06/09 04:39:04;;;;;;;;;;;;;;;19.80;66.95;100148.06;2030795;29;20304;-48
2022/06/09 04:40:04;;;;;;;;;;;;;;;19.80;66.98;100148.84;2029923;28;19915;-49
2022/06/09 04:41:09;;;;;;;;;;;;;;;19.81;67.40;100138.66;2034999;28;19906;-49
2022/06/09 04:42:09;;;;;;;;;;;;;;;19.81;67.07;100135.91;2034834;28;20071;-48
2022/06/09 04:43:11;;;;;;;;;;;;;;;19.81;66.88;100141.41;2036542;28;20203;-47
2022/06/09 04:44:11;;;;;;;;;;;;;;;19.81;67.02;100135.91;2034956;28;19997;-45
2022/06/09 04:45:14;;;;;;;;;;;;;;;19.81;67.13;100138.66;2035553;28;19911;-46
2022/06/09 04:46:16;;;;;;;;;;;;;;;19.81;67.14;100144.91;2030369;29;20292;-48
2022/06/09 04:47:16;;;;;;;;;;;;;;;19.80;66.85;100142.59;2031469;29;19974;-50
2022/06/09 04:48:16;;;;;;;;;;;;;;;19.75;66.79;100140.31;2036466;28;19911;-46
2022/06/09 04:49:16;;;;;;;;;;;;;;;19.76;66.94;100150.09;2032135;28;19997;-50
2022/06/09 04:50:18;;;;;;;;;;;;;;;19.72;66.45;100149.41;2038126;28;20232;-46
2022/06/09 04:51:19;;;;;;;;;;;;;;;19.70;66.43;100149.03;2040465;28;19946;-46
2022/06/09 04:52:20;;;;;;;;;;;;;;;19.70;66.74;100158.03;2032045;28;19915;-47
2022/06/09 04:53:20;;;;;;;;;;;;;;;19.71;66.96;100150.59;2030258;29;19911;-47
2022/06/09 04:54:21;;;;;;;;;;;;;;;19.68;67.01;100154.13;2037294;28;19910;-47
2022/06/09 04:55:21;;;;;;;;;;;;;;;19.70;66.70;100149.03;2038724;28;19917;-47
2022/06/09 04:56:22;;;;;;;;;;;;;;;19.69;66.29;100159.22;2031709;28;19923;-48
2022/06/09 04:57:22;;;;;;;;;;;;;;;19.69;66.46;100152.97;2029713;29;19921;-47
2022/06/09 04:58:22;;;;;;;;;;;;;;;19.68;66.52;100163.16;2030736;28;20441;-46
2022/06/09 04:59:22;;;;;;;;;;;;;;;19.70;66.88;100162.75;2035381;28;20009;-47
2022/06/09 05:00:23;;;;;;;;;;;;;;;19.71;66.90;100161.56;2034203;28;19945;-47
2022/06/09 05:01:25;;;;;;;;;;;;;;;19.73;66.99;100148.19;2032639;28;19957;-47
2022/06/09 05:02:26;;;;;;;;;;;;;;;19.73;67.02;100154.44;2030887;28;19914;-48
2022/06/09 05:03:26;;;;;;;;;;;;;;;19.73;67.11;100162.69;2035428;28;19914;-50
2022/06/09 05:04:26;;;;;;;;;;;;;;;19.74;67.12;100152.47;2029466;29;19960;-46
2022/06/09 05:05:32;;;;;;;;;;;;;;;19.73;67.42;100148.19;2034124;28;19949;-46
2022/06/09 05:06:32;;;;;;;;;;;;;;;19.73;66.88;100159.16;2033278;28;20411;-49
2022/06/09 05:07:33;;;;;;;;;;;;;;;19.74;66.94;100155.22;2029943;29;19915;-48
2022/06/09 05:08:33;;;;;;;;;;;;;;;19.74;66.97;100156.00;2028615;28;19913;-46
2022/06/09 05:09:33;;;;;;;;;;;;;;;19.75;66.73;100151.31;2029773;29;20558;-50
2022/06/09 05:10:33;;;;;;;;;;;;;;;19.75;66.81;100162.28;2033946;28;19991;-47
2022/06/09 05:11:34;;;;;;;;;;;;;;;19.75;67.13;100154.81;2033873;28;19911;-49
2022/06/09 05:12:34;;;;;;;;;;;;;;;19.76;67.03;100164.63;2037848;28;19921;-50
2022/06/09 05:13:35;;;;;;;;;;;;;;;19.79;67.36;100163.00;2034475;28;20714;-47
2022/06/09 05:14:35;;;;;;;;;;;;;;;19.76;67.45;100159.13;2036505;28;19914;-46
2022/06/09 05:15:36;;;;;;;;;;;;;;;19.76;67.81;100150.09;2029843;28;19910;-45
2022/06/09 05:16:38;;;;;;;;;;;;;;;19.75;67.90;100152.06;2029690;28;19969;-47
2022/06/09 05:17:38;;;;;;;;;;;;;;;19.74;68.02;100150.50;2028728;29;19977;-46
2022/06/09 05:18:38;;;;;;;;;;;;;;;19.73;68.13;100145.44;2023849;29;19925;-47